Time;durP1;ratioP1;P1;durP2;ratioP2;P2;SDS_P1;SDS_P2;PMS_P1;PMS_P2;Temp;Humidity;BMP_temperature;BMP_pressure;BME280_temperature;BME280_humidity;BME280_pressure;Samples;Min_cycle;Max_cycle;Signal;HPM_P1;HPM_P2
2022/02/25 00:02:00;;;;;;;3.40;0.80;;;5.10;73.00;;;;;;5000041;28;20033;-85
2022/02/25 00:04:26;;;;;;;2.92;1.00;;;5.10;72.60;;;;;;5004985;28;20030;-84
2022/02/25 00:06:51;;;;;;;5.55;1.15;;;5.10;72.70;;;;;;5009310;28;20037;-85
2022/02/25 00:09:17;;;;;;;6.30;1.45;;;5.10;72.60;;;;;;5025376;28;20422;-85
2022/02/25 00:11:43;;;;;;;3.78;1.13;;;5.10;72.60;;;;;;5009352;28;20693;-84
2022/02/25 00:14:08;;;;;;;3.08;1.05;;;5.10;73.00;;;;;;5011327;28;20080;-84
2022/02/25 00:16:34;;;;;;;2.70;0.68;;;5.00;72.80;;;;;;5008513;28;20056;-83
2022/02/25 00:19:00;;;;;;;2.58;0.80;;;5.00;73.20;;;;;;5010030;28;20037;-84
2022/02/25 00:21:25;;;;;;;2.88;0.85;;;5.10;73.30;;;;;;5009540;28;20474;-84
2022/02/25 00:23:51;;;;;;;3.60;0.70;;;5.00;72.90;;;;;;5009162;28;20033;-84
2022/02/25 00:26:16;;;;;;;5.68;1.23;;;5.00;72.70;;;;;;5007600;28;20129;-83
2022/02/25 00:28:42;;;;;;;4.30;1.05;;;5.00;73.00;;;;;;5007176;28;20088;-84
2022/02/25 00:31:08;;;;;;;2.90;0.80;;;5.00;73.60;;;;;;5010832;28;20026;-83
2022/02/25 00:33:33;;;;;;;2.95;1.08;;;5.00;74.10;;;;;;5010406;28;20061;-83
2022/02/25 00:35:59;;;;;;;3.50;1.42;;;4.90;72.80;;;;;;5007662;28;20028;-84
2022/02/25 00:38:25;;;;;;;3.60;1.23;;;4.90;73.50;;;;;;5007220;28;20109;-84
2022/02/25 00:40:50;;;;;;;3.72;0.98;;;4.90;73.40;;;;;;5007867;28;20391;-84
2022/02/25 00:43:16;;;;;;;3.83;0.90;;;4.90;73.80;;;;;;5010134;28;20061;-84
2022/02/25 00:45:42;;;;;;;5.25;1.42;;;4.90;73.40;;;;;;5008785;28;20112;-83
2022/02/25 00:48:07;;;;;;;3.17;0.90;;;4.80;74.00;;;;;;5009667;28;20503;-83
2022/02/25 00:50:33;;;;;;;3.10;0.68;;;4.80;73.50;;;;;;5009835;28;20036;-83
2022/02/25 00:52:59;;;;;;;5.45;1.00;;;4.80;74.60;;;;;;5010091;28;20120;-83
2022/02/25 00:55:24;;;;;;;4.22;1.25;;;4.80;73.70;;;;;;5009258;28;20030;-83
2022/02/25 00:57:51;;;;;;;2.33;0.68;;;4.70;73.70;;;;;;5009626;28;20026;-83
2022/02/25 01:00:19;;;;;;;2.67;0.88;;;4.80;73.90;;;;;;5008631;28;20030;-83
2022/02/25 01:02:45;;;;;;;3.17;0.82;;;4.70;74.80;;;;;;5009899;28;20050;-83
2022/02/25 01:05:11;;;;;;;3.97;0.90;;;4.70;73.70;;;;;;5009026;28;20087;-83
2022/02/25 01:07:41;;;;;;;3.28;0.77;;;4.70;74.70;;;;;;5031070;28;20498;-83
2022/02/25 01:10:09;;;;;;;4.63;0.98;;;4.70;74.10;;;;;;5001085;28;20034;-83
2022/02/25 01:12:35;;;;;;;3.92;0.93;;;4.70;74.80;;;;;;5006738;28;20092;-83
2022/02/25 01:15:01;;;;;;;3.28;0.77;;;4.80;75.00;;;;;;5009800;28;20046;-83
2022/02/25 01:17:29;;;;;;;4.25;0.80;;;4.70;74.40;;;;;;5013162;28;20101;-83
2022/02/25 01:19:58;;;;;;;5.82;1.35;;;4.70;74.50;;;;;;5014007;28;20141;-83
2022/02/25 01:22:25;;;;;;;2.15;1.13;;;4.60;74.40;;;;;;5013384;28;20030;-84
2022/02/25 01:24:51;;;;;;;2.00;0.65;;;4.60;74.70;;;;;;5013468;28;20037;-84
2022/02/25 01:27:17;;;;;;;2.90;0.80;;;4.60;74.50;;;;;;5011291;28;20081;-85
2022/02/25 01:29:43;;;;;;;1.45;0.57;;;4.60;75.00;;;;;;5013688;28;20376;-84
2022/02/25 01:32:09;;;;;;;2.65;1.05;;;4.60;74.90;;;;;;5010205;28;20027;-85
2022/02/25 01:34:35;;;;;;;3.45;0.82;;;4.60;75.30;;;;;;5010865;28;20083;-85
2022/02/25 01:37:01;;;;;;;3.63;1.00;;;4.70;75.40;;;;;;5007545;28;20117;-85
2022/02/25 01:39:26;;;;;;;2.75;0.90;;;4.60;76.00;;;;;;5001541;28;20108;-85
2022/02/25 01:41:52;;;;;;;4.05;1.13;;;4.60;76.20;;;;;;5013304;28;20030;-84
2022/02/25 01:44:29;;;;;;;4.25;1.10;;;4.60;76.00;;;;;;5015084;28;20080;-84
2022/02/25 01:47:00;;;;;;;4.32;1.20;;;4.60;76.70;;;;;;5006705;28;20030;-83
2022/02/25 01:49:28;;;;;;;4.40;1.05;;;4.70;76.80;;;;;;5006506;28;20084;-83
2022/02/25 01:51:59;;;;;;;1.80;0.80;;;4.70;76.90;;;;;;5013434;28;20034;-85
2022/02/25 01:54:26;;;;;;;2.70;0.80;;;4.70;76.60;;;;;;5013278;28;20041;-85
2022/02/25 01:56:55;;;;;;;3.67;1.00;;;4.70;76.60;;;;;;5011338;28;20442;-85
2022/02/25 01:59:21;;;;;;;1.98;0.60;;;4.70;77.20;;;;;;5014341;28;20121;-86
2022/02/25 02:01:47;;;;;;;7.53;1.00;;;4.70;77.30;;;;;;5026856;28;20069;-85
2022/02/25 02:04:13;;;;;;;4.72;0.82;;;4.70;77.40;;;;;;5013018;28;20057;-86
2022/02/25 02:06:39;;;;;;;3.83;1.20;;;4.70;78.10;;;;;;5013474;28;20275;-85
2022/02/25 02:09:07;;;;;;;2.53;0.60;;;4.70;78.20;;;;;;5010262;28;20042;-86
2022/02/25 02:11:34;;;;;;;6.90;1.50;;;4.70;77.70;;;;;;5013011;28;20487;-86
2022/02/25 02:14:02;;;;;;;2.67;1.27;;;4.70;78.20;;;;;;5013513;28;20088;-85
2022/02/25 02:16:28;;;;;;;4.53;0.80;;;4.70;78.20;;;;;;5038269;28;20022;-85
2022/02/25 02:18:54;;;;;;;5.63;0.68;;;4.70;78.10;;;;;;5013003;28;20536;-86
2022/02/25 02:21:26;;;;;;;2.83;1.40;;;4.70;78.30;;;;;;5044756;28;20032;-86
2022/02/25 02:23:56;;;;;;;6.80;1.48;;;4.70;78.00;;;;;;5013860;28;20425;-87
2022/02/25 02:26:22;;;;;;;4.20;1.00;;;4.60;78.20;;;;;;5014330;28;20088;-86
2022/02/25 02:28:49;;;;;;;3.17;0.60;;;4.70;78.10;;;;;;5010642;28;20042;-85
2022/02/25 02:31:15;;;;;;;3.20;1.00;;;4.60;77.80;;;;;;5007633;28;20430;-86
2022/02/25 02:33:41;;;;;;;4.43;0.93;;;4.60;78.20;;;;;;5009503;28;20075;-85
2022/02/25 02:36:08;;;;;;;2.50;0.80;;;4.60;78.60;;;;;;5012686;28;20072;-85
2022/02/25 02:38:34;;;;;;;4.03;1.17;;;4.60;78.20;;;;;;5012801;28;20025;-85
2022/02/25 02:41:00;;;;;;;5.10;0.95;;;4.60;78.40;;;;;;5009616;28;20033;-85
2022/02/25 02:43:26;;;;;;;1.92;0.73;;;4.60;78.90;;;;;;5023365;28;20439;-86
2022/02/25 02:45:52;;;;;;;2.15;0.80;;;4.60;78.90;;;;;;5012184;28;20037;-85
2022/02/25 02:48:18;;;;;;;1.75;0.55;;;4.60;78.90;;;;;;5044108;28;20514;-84
2022/02/25 02:50:44;;;;;;;4.63;0.82;;;4.50;78.60;;;;;;5012264;28;20034;-84
2022/02/25 02:53:10;;;;;;;1.95;0.93;;;4.50;78.20;;;;;;5013842;28;20022;-84
2022/02/25 02:55:35;;;;;;;5.78;1.15;;;4.40;78.60;;;;;;5011211;28;20026;-85
2022/02/25 02:58:02;;;;;;;2.13;0.57;;;4.50;79.20;;;;;;5011759;28;20034;-84
2022/02/25 03:00:27;;;;;;;3.97;1.02;;;4.50;79.00;;;;;;5008764;28;20509;-85
2022/02/25 03:02:53;;;;;;;3.85;0.90;;;4.50;79.30;;;;;;5011877;28;20041;-85
2022/02/25 03:05:19;;;;;;;2.60;0.60;;;4.50;78.40;;;;;;5027419;28;20038;-84
2022/02/25 03:07:48;;;;;;;2.28;0.60;;;4.40;78.70;;;;;;5011843;28;20036;-85
2022/02/25 03:10:15;;;;;;;2.75;0.60;;;4.40;79.00;;;;;;5012288;28;20053;-86
2022/02/25 03:12:41;;;;;;;2.85;0.80;;;4.40;78.50;;;;;;5013141;28;20380;-86
2022/02/25 03:15:08;;;;;;;3.35;0.65;;;4.40;78.80;;;;;;5014403;28;20033;-87
2022/02/25 03:17:35;;;;;;;2.92;0.70;;;4.40;79.40;;;;;;5014374;28;20025;-87
2022/02/25 03:20:01;;;;;;;1.67;0.60;;;4.40;79.50;;;;;;5011643;28;20080;-86
2022/02/25 03:22:27;;;;;;;1.73;0.60;;;4.40;79.80;;;;;;5009180;28;20026;-85
2022/02/25 03:24:53;;;;;;;2.92;0.93;;;4.40;79.40;;;;;;5009754;28;20108;-85
2022/02/25 03:27:19;;;;;;;1.98;0.70;;;4.30;79.30;;;;;;5007616;28;20126;-86
2022/02/25 03:29:45;;;;;;;2.42;0.55;;;4.30;79.10;;;;;;4991993;28;20592;-85
2022/02/25 03:32:11;;;;;;;2.33;0.68;;;4.30;79.40;;;;;;5010926;28;20026;-86
2022/02/25 03:34:37;;;;;;;2.33;0.52;;;4.30;79.30;;;;;;5006924;28;20109;-86
2022/02/25 03:37:04;;;;;;;1.77;0.60;;;4.30;80.00;;;;;;5031486;28;20026;-86
2022/02/25 03:39:29;;;;;;;2.72;0.57;;;4.30;79.30;;;;;;5012533;28;20026;-86
2022/02/25 03:41:55;;;;;;;3.33;0.80;;;4.30;80.10;;;;;;5010368;28;20022;-84
2022/02/25 03:44:21;;;;;;;2.92;0.60;;;4.30;79.50;;;;;;5026453;28;20490;-84
2022/02/25 03:46:47;;;;;;;1.52;0.68;;;4.30;79.40;;;;;;5010902;28;20022;-84
2022/02/25 03:49:16;;;;;;;2.28;0.60;;;4.30;80.30;;;;;;5025890;28;20411;-84
2022/02/25 03:51:43;;;;;;;2.42;0.75;;;4.30;80.30;;;;;;5010611;28;20034;-84
2022/02/25 03:54:09;;;;;;;3.25;0.95;;;4.20;79.20;;;;;;5009193;28;20037;-85
2022/02/25 03:56:34;;;;;;;2.67;0.80;;;4.20;79.70;;;;;;5011366;28;20029;-85
2022/02/25 03:59:00;;;;;;;3.35;0.88;;;4.30;81.00;;;;;;5009777;28;20406;-85
2022/02/25 04:01:26;;;;;;;2.25;0.50;;;4.30;80.90;;;;;;5006029;28;20028;-85
2022/02/25 04:03:52;;;;;;;2.08;1.30;;;4.30;80.50;;;;;;5001087;28;20037;-86
2022/02/25 04:06:18;;;;;;;1.70;0.57;;;4.30;80.90;;;;;;5042727;28;20022;-85
2022/02/25 04:08:44;;;;;;;3.28;1.17;;;4.30;81.00;;;;;;5010649;28;20117;-85
2022/02/25 04:11:10;;;;;;;1.70;0.80;;;4.30;80.10;;;;;;5012060;28;20112;-86
2022/02/25 04:13:37;;;;;;;4.10;0.80;;;4.30;80.80;;;;;;5026632;28;20072;-85
2022/02/25 04:16:03;;;;;;;3.38;0.85;;;4.30;80.90;;;;;;5011117;28;20022;-86
2022/02/25 04:18:28;;;;;;;2.38;1.13;;;4.30;81.70;;;;;;5023636;28;20032;-86
2022/02/25 04:20:54;;;;;;;3.55;1.00;;;4.40;82.00;;;;;;5009759;28;20434;-87
2022/02/25 04:23:19;;;;;;;2.30;0.50;;;4.40;81.70;;;;;;5006103;28;20041;-85
2022/02/25 04:25:45;;;;;;;1.90;0.43;;;4.40;81.50;;;;;;5008981;28;20065;-86
2022/02/25 04:28:11;;;;;;;3.13;0.90;;;4.40;81.50;;;;;;5009780;28;20495;-86
2022/02/25 04:30:37;;;;;;;3.75;0.80;;;4.40;81.80;;;;;;5007518;28;20030;-86
2022/02/25 04:33:03;;;;;;;1.80;0.68;;;4.40;81.30;;;;;;5009017;28;20415;-86
2022/02/25 04:35:28;;;;;;;2.58;0.70;;;4.40;82.10;;;;;;5010794;28;20530;-87
2022/02/25 04:37:54;;;;;;;1.88;0.60;;;4.40;82.10;;;;;;5011467;28;20034;-85
2022/02/25 04:40:20;;;;;;;3.22;1.08;;;4.40;81.60;;;;;;5007078;28;20050;-85
2022/02/25 04:42:46;;;;;;;3.85;0.90;;;4.50;81.80;;;;;;5000154;28;20041;-84
2022/02/25 04:45:12;;;;;;;2.70;1.30;;;4.40;81.90;;;;;;5009752;28;20122;-84
2022/02/25 04:47:38;;;;;;;3.70;0.80;;;4.40;82.40;;;;;;5010129;28;20065;-84
2022/02/25 04:50:04;;;;;;;3.38;0.80;;;4.40;82.20;;;;;;5025439;28;20089;-84
2022/02/25 04:52:30;;;;;;;2.67;0.60;;;4.40;81.80;;;;;;5036381;28;20065;-84
2022/02/25 04:54:55;;;;;;;2.67;0.75;;;4.40;82.20;;;;;;5007265;28;20596;-85
2022/02/25 04:57:21;;;;;;;2.45;0.73;;;4.40;82.80;;;;;;5040321;28;20529;-85
2022/02/25 04:59:47;;;;;;;1.88;0.70;;;4.50;82.50;;;;;;5008477;28;20124;-85
2022/02/25 05:02:12;;;;;;;2.15;0.65;;;4.40;82.50;;;;;;5011955;28;20022;-85
2022/02/25 05:04:38;;;;;;;2.42;0.93;;;4.40;82.30;;;;;;5009899;28;20116;-85
2022/02/25 05:07:04;;;;;;;2.70;0.93;;;4.40;83.10;;;;;;5008731;28;20513;-85
2022/02/25 05:09:30;;;;;;;2.03;0.80;;;4.40;82.80;;;;;;5010459;28;20033;-86
2022/02/25 05:11:56;;;;;;;2.80;0.50;;;4.40;83.00;;;;;;5008813;28;20026;-85
2022/02/25 05:22:33;;;;;;;0.93;0.30;;;4.20;81.20;;;;;;5011340;28;19917;-86
2022/02/25 05:24:59;;;;;;;1.85;0.73;;;4.20;82.00;;;;;;5010243;28;20042;-87
2022/02/25 05:27:25;;;;;;;0.80;0.40;;;4.20;82.10;;;;;;5009918;28;20057;-85
2022/02/25 05:29:50;;;;;;;1.95;0.70;;;4.20;81.50;;;;;;5010340;28;20042;-86
2022/02/25 05:32:16;;;;;;;2.83;1.05;;;4.10;81.70;;;;;;5011551;28;20037;-86
2022/02/25 05:34:43;;;;;;;1.75;0.82;;;4.10;82.10;;;;;;5008362;28;20038;-85
2022/02/25 05:37:09;;;;;;;1.92;0.55;;;4.10;82.00;;;;;;5011011;28;20109;-87
2022/02/25 05:39:35;;;;;;;2.67;0.80;;;4.10;81.50;;;;;;5010114;28;20060;-86
2022/02/25 05:42:00;;;;;;;2.95;0.70;;;4.10;81.60;;;;;;5009068;28;20026;-85
2022/02/25 05:44:26;;;;;;;1.88;0.70;;;4.10;82.60;;;;;;5011237;28;20100;-85
2022/02/25 05:46:52;;;;;;;1.17;0.60;;;4.00;81.80;;;;;;5009705;28;20486;-86
2022/02/25 05:49:17;;;;;;;2.78;0.82;;;4.00;83.10;;;;;;5003075;28;20062;-86
2022/02/25 05:51:43;;;;;;;2.38;1.17;;;4.00;82.60;;;;;;5003221;28;20030;-86
2022/02/25 05:54:09;;;;;;;1.90;0.55;;;4.00;82.70;;;;;;5006933;28;20031;-86
2022/02/25 05:56:34;;;;;;;2.90;0.75;;;4.00;82.50;;;;;;5011054;28;20028;-85
2022/02/25 05:59:00;;;;;;;4.15;0.80;;;4.00;82.40;;;;;;5011483;28;20056;-85
2022/02/25 06:01:26;;;;;;;2.15;0.73;;;3.90;82.40;;;;;;5008587;28;20026;-87
2022/02/25 06:03:51;;;;;;;4.10;0.85;;;3.90;82.50;;;;;;5009218;28;20411;-87
2022/02/25 06:06:17;;;;;;;1.77;0.70;;;3.90;82.50;;;;;;5008806;28;20784;-88
2022/02/25 06:08:43;;;;;;;2.10;1.05;;;3.80;82.20;;;;;;4994651;28;20038;-86
2022/02/25 06:11:08;;;;;;;2.92;0.52;;;3.80;82.40;;;;;;5008438;28;20463;-85
2022/02/25 06:13:34;;;;;;;1.52;0.60;;;3.80;82.10;;;;;;5010332;28;20026;-87
2022/02/25 06:15:59;;;;;;;1.67;0.50;;;3.70;82.20;;;;;;5002596;28;20030;-86
2022/02/25 06:18:25;;;;;;;1.63;0.70;;;3.80;82.50;;;;;;5009727;28;20029;-87
2022/02/25 06:20:51;;;;;;;1.17;0.60;;;3.80;82.70;;;;;;5014415;28;20083;-85
2022/02/25 06:23:21;;;;;;;1.30;0.65;;;3.80;83.40;;;;;;5009355;28;20030;-86
2022/02/25 06:25:47;;;;;;;1.92;0.55;;;3.80;83.70;;;;;;5011782;28;20113;-86
2022/02/25 06:28:13;;;;;;;1.17;0.52;;;3.80;83.80;;;;;;5013672;28;20025;-85
2022/02/25 06:30:39;;;;;;;3.08;0.77;;;3.80;84.00;;;;;;5011220;28;20030;-85
2022/02/25 06:33:05;;;;;;;2.00;1.15;;;3.90;83.90;;;;;;5013640;28;20026;-86
2022/02/25 06:35:30;;;;;;;2.00;0.80;;;3.90;84.40;;;;;;5013049;28;20038;-84
2022/02/25 06:37:57;;;;;;;1.58;0.60;;;3.90;84.00;;;;;;5010149;28;20487;-86
2022/02/25 06:40:22;;;;;;;3.72;1.63;;;3.90;84.70;;;;;;5009141;28;20030;-85
2022/02/25 06:42:48;;;;;;;3.92;0.88;;;3.90;84.70;;;;;;5009854;28;20030;-85
2022/02/25 06:45:15;;;;;;;5.40;1.13;;;3.90;84.60;;;;;;5010798;28;20026;-85
2022/02/25 06:47:41;;;;;;;2.15;0.70;;;3.90;83.90;;;;;;5012633;28;20021;-85
2022/02/25 06:50:08;;;;;;;2.45;0.90;;;3.90;84.50;;;;;;5008650;28;20042;-84
2022/02/25 06:52:35;;;;;;;4.15;1.10;;;3.80;84.30;;;;;;5008317;28;20502;-84
2022/02/25 06:55:01;;;;;;;2.60;0.93;;;3.80;84.00;;;;;;5005177;28;20117;-86
2022/02/25 06:57:26;;;;;;;2.45;0.90;;;3.80;83.30;;;;;;5008938;28;20473;-86
2022/02/25 06:59:52;;;;;;;2.33;0.85;;;3.80;83.70;;;;;;5010693;28;20030;-85
2022/02/25 07:02:18;;;;;;;1.50;0.70;;;3.70;83.50;;;;;;5027014;28;20030;-84
2022/02/25 07:04:43;;;;;;;1.98;0.80;;;3.80;84.00;;;;;;5011093;28;20037;-84
2022/02/25 07:07:09;;;;;;;3.15;1.08;;;3.80;84.70;;;;;;5041382;28;20030;-87
2022/02/25 07:09:34;;;;;;;4.68;0.98;;;3.80;83.80;;;;;;5009461;28;20154;-88
2022/02/25 07:12:00;;;;;;;1.80;0.70;;;3.80;84.50;;;;;;5011813;28;20086;-87
2022/02/25 07:14:26;;;;;;;2.85;0.90;;;3.90;85.00;;;;;;5012765;28;20042;-86
2022/02/25 07:16:51;;;;;;;2.67;1.00;;;4.00;84.90;;;;;;5008745;28;20037;-89
2022/02/25 07:19:17;;;;;;;2.60;1.05;;;4.10;85.00;;;;;;5012291;28;20128;-91
2022/02/25 07:21:43;;;;;;;2.63;0.90;;;4.10;85.30;;;;;;5012435;28;20156;-92
2022/02/25 07:24:08;;;;;;;1.23;0.73;;;4.10;84.10;;;;;;5015566;28;20513;-90
2022/02/25 07:26:34;;;;;;;2.83;1.10;;;4.10;83.90;;;;;;5013742;28;20050;-90
2022/02/25 07:29:00;;;;;;;2.83;1.10;;;4.10;84.80;;;;;;5011501;28;20570;-90
2022/02/25 07:31:25;;;;;;;3.30;1.05;;;4.20;85.00;;;;;;5017004;28;20021;-90
2022/02/25 07:33:51;;;;;;;3.42;1.05;;;4.20;84.50;;;;;;5022680;28;20034;-86
2022/02/25 07:36:18;;;;;;;1.80;0.85;;;4.20;84.50;;;;;;5002790;28;20123;-77
2022/02/25 07:38:43;;;;;;;1.73;1.00;;;4.30;84.60;;;;;;5018974;28;20021;-77
2022/02/25 07:41:09;;;;;;;3.38;1.20;;;4.40;84.90;;;;;;5014370;28;20021;-77
2022/02/25 07:43:35;;;;;;;2.80;1.08;;;4.40;85.30;;;;;;5018738;28;20600;-76
2022/02/25 07:46:00;;;;;;;3.55;1.27;;;4.50;85.20;;;;;;5018315;28;20509;-76
2022/02/25 07:48:26;;;;;;;2.30;0.98;;;4.50;85.90;;;;;;5010416;28;20083;-77
2022/02/25 07:50:52;;;;;;;3.72;1.02;;;4.60;86.00;;;;;;5010193;28;20132;-78
2022/02/25 07:53:18;;;;;;;3.33;0.82;;;4.60;85.50;;;;;;5012069;28;20045;-77
2022/02/25 07:55:45;;;;;;;4.45;1.30;;;4.70;85.90;;;;;;5038359;28;20149;-76
2022/02/25 07:58:10;;;;;;;4.43;1.20;;;4.70;85.80;;;;;;5011671;28;20018;-75
2022/02/25 08:00:36;;;;;;;2.55;1.05;;;4.70;85.40;;;;;;5010544;28;20030;-76
2022/02/25 08:03:02;;;;;;;3.42;1.27;;;4.80;86.10;;;;;;5011219;28;20025;-76
2022/02/25 08:05:32;;;;;;;4.15;1.40;;;4.80;85.80;;;;;;5008038;28;20109;-76
2022/02/25 08:08:02;;;;;;;3.53;1.20;;;4.80;86.30;;;;;;5029996;28;20030;-75
2022/02/25 08:10:29;;;;;;;2.38;0.73;;;4.90;85.70;;;;;;5000140;28;20392;-75
2022/02/25 08:12:54;;;;;;;2.80;1.05;;;4.90;86.00;;;;;;4999327;28;20560;-75
2022/02/25 08:15:20;;;;;;;4.20;1.25;;;4.90;85.60;;;;;;5008439;28;20030;-76
2022/02/25 08:17:47;;;;;;;3.85;1.40;;;5.00;86.10;;;;;;5010372;28;20041;-75
2022/02/25 08:20:13;;;;;;;4.78;1.23;;;5.00;86.40;;;;;;5010212;28;20510;-75
2022/02/25 08:22:39;;;;;;;3.40;1.27;;;5.10;86.30;;;;;;5013374;28;20109;-75
2022/02/25 08:25:06;;;;;;;3.67;1.17;;;5.10;85.70;;;;;;5017664;28;20022;-75
2022/02/25 08:27:31;;;;;;;2.42;1.02;;;5.20;85.90;;;;;;5009843;28;20049;-75
2022/02/25 08:29:57;;;;;;;4.25;1.13;;;5.20;85.50;;;;;;5010423;28;20528;-75
2022/02/25 08:32:23;;;;;;;5.45;1.02;;;5.20;85.10;;;;;;5011966;28;20041;-75
2022/02/25 08:34:49;;;;;;;5.20;1.42;;;5.30;85.40;;;;;;5010292;28;20491;-76
2022/02/25 08:37:14;;;;;;;4.22;1.27;;;5.40;85.20;;;;;;5010500;28;20022;-75
2022/02/25 08:39:40;;;;;;;2.75;1.20;;;5.40;85.40;;;;;;5010302;28;20037;-75
2022/02/25 08:42:06;;;;;;;3.53;1.05;;;5.50;84.50;;;;;;5010451;28;20075;-76
2022/02/25 08:44:32;;;;;;;4.35;1.27;;;5.50;84.70;;;;;;5012216;28;20387;-75
2022/02/25 08:46:58;;;;;;;5.65;1.50;;;5.50;84.70;;;;;;5009099;28;20022;-75
2022/02/25 08:49:24;;;;;;;5.38;1.30;;;5.60;84.20;;;;;;5009736;28;20034;-75
2022/02/25 08:51:49;;;;;;;4.57;1.30;;;5.60;83.70;;;;;;5010432;28;20037;-75
2022/02/25 08:54:19;;;;;;;5.93;1.45;;;5.70;83.80;;;;;;5008989;28;20535;-75
2022/02/25 08:56:45;;;;;;;5.63;1.88;;;5.70;84.80;;;;;;5010333;28;20076;-75
2022/02/25 08:59:11;;;;;;;7.43;1.75;;;5.70;84.60;;;;;;5011696;28;20513;-75
2022/02/25 09:01:36;;;;;;;3.85;1.30;;;5.80;84.40;;;;;;5009638;28;20028;-75
2022/02/25 09:04:02;;;;;;;4.22;1.38;;;5.80;84.30;;;;;;5010252;28;20133;-76
2022/02/25 09:06:29;;;;;;;4.35;1.30;;;5.80;84.40;;;;;;5010274;28;20025;-75
2022/02/25 09:08:56;;;;;;;4.88;1.30;;;5.90;84.70;;;;;;5009852;28;20046;-75
2022/02/25 09:11:22;;;;;;;4.35;1.38;;;6.00;85.20;;;;;;5011688;28;20121;-76
2022/02/25 09:13:49;;;;;;;3.03;1.05;;;6.00;84.00;;;;;;5009374;28;20498;-75
2022/02/25 09:16:15;;;;;;;5.30;1.30;;;6.00;83.90;;;;;;5003809;28;20442;-75
2022/02/25 09:18:40;;;;;;;5.65;1.35;;;6.10;83.80;;;;;;5000143;28;20026;-75
2022/02/25 09:21:06;;;;;;;5.03;1.23;;;6.20;83.60;;;;;;5013535;28;20034;-75
2022/02/25 09:23:32;;;;;;;4.25;1.33;;;6.30;83.70;;;;;;5012040;28;20550;-75
2022/02/25 09:25:58;;;;;;;6.18;1.35;;;6.40;83.70;;;;;;5009299;28;20057;-75
2022/02/25 09:28:25;;;;;;;5.50;1.38;;;6.40;83.40;;;;;;5004129;28;20093;-75
2022/02/25 09:30:51;;;;;;;4.40;1.40;;;6.40;82.90;;;;;;5003448;28;20057;-76
2022/02/25 09:33:17;;;;;;;4.63;1.15;;;6.50;84.10;;;;;;5008528;28;20022;-75
2022/02/25 09:35:43;;;;;;;5.55;1.27;;;6.60;82.70;;;;;;5010408;28;20033;-75
2022/02/25 09:38:09;;;;;;;6.63;1.20;;;6.70;82.90;;;;;;5012364;28;20037;-75
2022/02/25 09:40:36;;;;;;;5.93;1.33;;;6.80;82.70;;;;;;5013412;28;20026;-75
2022/02/25 09:43:02;;;;;;;4.47;1.27;;;6.90;83.00;;;;;;5013154;28;20068;-75
2022/02/25 09:45:28;;;;;;;7.63;1.42;;;7.00;82.90;;;;;;5012801;28;20073;-76
2022/02/25 09:47:54;;;;;;;10.70;2.60;;;7.00;82.50;;;;;;5013456;28;20057;-76
2022/02/25 09:50:22;;;;;;;6.57;1.77;;;7.10;82.40;;;;;;5015218;28;20069;-76
2022/02/25 09:52:48;;;;;;;6.40;1.58;;;7.10;81.90;;;;;;5013479;28;20092;-76
2022/02/25 09:55:31;;;;;;;5.45;1.20;;;7.20;81.90;;;;;;5013694;28;20187;-76
2022/02/25 09:58:00;;;;;;;4.68;1.33;;;7.30;81.90;;;;;;5013454;28;20502;-77
2022/02/25 10:00:26;;;;;;;4.05;1.20;;;7.30;81.20;;;;;;5012984;28;20156;-77
2022/02/25 10:02:58;;;;;;;5.60;1.70;;;7.40;80.70;;;;;;5012829;28;20041;-76
2022/02/25 10:05:26;;;;;;;5.35;1.23;;;7.40;80.80;;;;;;5014938;28;20025;-76
2022/02/25 10:07:52;;;;;;;6.55;1.70;;;7.50;81.00;;;;;;5013260;28;20022;-78
2022/02/25 10:10:25;;;;;;;7.78;1.70;;;7.50;80.70;;;;;;5012690;28;20038;-76
2022/02/25 10:13:02;;;;;;;10.35;1.80;;;7.60;81.20;;;;;;5012004;28;20501;-75
2022/02/25 10:15:33;;;;;;;6.10;1.30;;;7.70;80.70;;;;;;5012859;28;20026;-76
2022/02/25 10:18:09;;;;;;;5.55;1.30;;;7.70;80.70;;;;;;5013207;28;20120;-76
2022/02/25 10:20:35;;;;;;;8.73;1.92;;;7.80;81.10;;;;;;5011198;28;20033;-76
2022/02/25 10:23:01;;;;;;;6.72;1.77;;;7.80;80.80;;;;;;5013021;28;20030;-76
2022/02/25 10:25:33;;;;;;;6.50;1.70;;;7.90;80.70;;;;;;5012619;28;20022;-76
2022/02/25 10:28:00;;;;;;;9.00;1.60;;;8.00;80.10;;;;;;5012872;28;20131;-75
2022/02/25 10:30:28;;;;;;;8.55;1.75;;;8.00;80.10;;;;;;5012477;28;20034;-75
2022/02/25 10:32:56;;;;;;;4.45;1.60;;;8.00;80.00;;;;;;5012675;28;20041;-75
2022/02/25 10:35:29;;;;;;;6.63;1.30;;;8.10;80.00;;;;;;5014359;28;20084;-76
2022/02/25 10:37:59;;;;;;;;;;;8.10;79.20;;;;;;5013048;28;20030;-77
2022/02/25 10:40:27;;;;;;;7.38;1.50;;;8.10;79.80;;;;;;5039517;28;19991;-76
2022/02/25 10:42:53;;;;;;;7.45;2.03;;;8.20;79.90;;;;;;5012626;28;20029;-75
2022/02/25 10:45:36;;;;;;;5.13;1.50;;;8.30;79.30;;;;;;5012161;28;20033;-75
2022/02/25 10:48:26;;;;;;;6.88;1.58;;;8.40;78.60;;;;;;4996910;28;20033;-76
2022/02/25 10:50:56;;;;;;;6.22;1.50;;;8.50;78.10;;;;;;5010048;28;20041;-76
2022/02/25 10:53:28;;;;;;;8.10;1.88;;;8.50;78.50;;;;;;5014140;28;20068;-74
2022/02/25 10:56:06;;;;;;;6.35;1.23;;;8.50;78.30;;;;;;5012377;28;20034;-77
2022/02/25 10:58:49;;;;;;;7.57;1.77;;;8.60;78.20;;;;;;5011832;28;20474;-77
2022/02/25 11:01:17;;;;;;;6.85;1.35;;;8.70;78.10;;;;;;5012371;28;20104;-79
2022/02/25 11:04:05;;;;;;;8.90;1.52;;;8.70;76.50;;;;;;5012280;28;20450;-79
2022/02/25 11:06:32;;;;;;;5.07;1.38;;;8.70;77.30;;;;;;5009371;28;20514;-81
2022/02/25 11:08:58;;;;;;;7.75;1.77;;;8.80;76.70;;;;;;5011027;28;20041;-80
2022/02/25 11:11:24;;;;;;;9.65;2.05;;;8.80;76.70;;;;;;5012711;28;20028;-81
2022/02/25 11:13:51;;;;;;;6.10;1.40;;;8.90;77.30;;;;;;5011208;28;20029;-79
2022/02/25 11:16:20;;;;;;;7.90;1.42;;;8.90;77.50;;;;;;5004742;28;20026;-81
2022/02/25 11:18:48;;;;;;;7.40;1.77;;;9.00;76.80;;;;;;5002053;28;20026;-78
2022/02/25 11:21:16;;;;;;;10.35;1.98;;;9.10;77.60;;;;;;5042456;28;20058;-79
2022/02/25 11:23:43;;;;;;;7.40;1.40;;;9.20;77.90;;;;;;5011600;28;20495;-81
2022/02/25 11:26:10;;;;;;;9.43;1.85;;;9.30;75.80;;;;;;5007977;28;20582;-80
2022/02/25 11:28:37;;;;;;;8.93;2.17;;;9.40;76.20;;;;;;5023283;28;20129;-80
2022/02/25 11:31:11;;;;;;;9.00;1.83;;;9.60;75.30;;;;;;5009509;28;20030;-81
2022/02/25 11:33:38;;;;;;;7.63;2.03;;;9.70;73.90;;;;;;5025586;28;20080;-83
2022/02/25 11:36:07;;;;;;;10.02;2.20;;;9.70;74.90;;;;;;5010791;28;20403;-81
2022/02/25 11:38:42;;;;;;;8.05;2.22;;;9.90;76.40;;;;;;5012302;28;20030;-79
2022/02/25 11:41:13;;;;;;;9.98;2.67;;;10.10;74.20;;;;;;5011382;28;20096;-79
2022/02/25 11:43:46;;;;;;;6.88;2.08;;;10.20;72.50;;;;;;5009137;28;20037;-82
2022/02/25 11:46:23;;;;;;;9.50;2.63;;;10.30;72.70;;;;;;5010643;28;20029;-79
2022/02/25 11:48:57;;;;;;;9.93;2.17;;;10.40;74.00;;;;;;5010585;28;20030;-80
2022/02/25 11:51:33;;;;;;;9.00;1.70;;;10.20;72.00;;;;;;5010487;28;20018;-80
2022/02/25 11:54:20;;;;;;;7.13;1.77;;;10.00;72.00;;;;;;5010720;28;20521;-80
2022/02/25 11:57:04;;;;;;;7.10;2.20;;;9.90;73.00;;;;;;5008762;28;20057;-79
2022/02/25 11:59:32;;;;;;;6.78;1.73;;;9.80;71.60;;;;;;5008172;28;20034;-79
2022/02/25 12:02:02;;;;;;;6.57;1.55;;;9.70;72.40;;;;;;5001913;28;20486;-80
2022/02/25 12:04:32;;;;;;;9.75;2.17;;;9.60;72.90;;;;;;5010200;28;20033;-80
2022/02/25 12:07:06;;;;;;;7.07;2.03;;;9.50;72.40;;;;;;5037935;28;20037;-80
2022/02/25 12:09:38;;;;;;;8.15;1.67;;;9.50;72.30;;;;;;5024274;28;20122;-79
2022/02/25 12:12:22;;;;;;;9.85;1.55;;;9.60;71.30;;;;;;5010479;28;20640;-79
2022/02/25 12:15:14;;;;;;;8.38;1.58;;;9.80;70.80;;;;;;5010985;28;20022;-79
2022/02/25 12:17:44;;;;;;;6.05;1.52;;;9.80;71.10;;;;;;5009077;28;20213;-78
2022/02/25 12:20:24;;;;;;;5.25;1.35;;;9.90;70.20;;;;;;5011931;28;20116;-84
2022/02/25 12:22:54;;;;;;;6.43;1.30;;;10.10;71.80;;;;;;5009909;28;20649;-81
2022/02/25 12:25:38;;;;;;;7.57;1.70;;;10.20;71.80;;;;;;5009768;28;20030;-81
2022/02/25 12:28:05;;;;;;;8.52;1.75;;;10.30;70.00;;;;;;5009901;28;20099;-81
2022/02/25 12:30:39;;;;;;;9.50;1.55;;;10.40;70.50;;;;;;5010034;28;20050;-83
2022/02/25 12:33:30;;;;;;;8.15;1.77;;;10.40;66.90;;;;;;5010127;28;20125;-81
2022/02/25 12:36:12;;;;;;;6.28;1.60;;;10.40;70.00;;;;;;5010378;28;20014;-80
2022/02/25 12:38:55;;;;;;;4.53;1.30;;;10.50;70.30;;;;;;5008833;28;20087;-81
2022/02/25 12:41:25;;;;;;;5.50;1.40;;;10.70;67.00;;;;;;5010463;28;20029;-80
2022/02/25 12:43:51;;;;;;;5.82;1.88;;;10.70;68.00;;;;;;5003757;28;20337;-81
2022/02/25 12:46:22;;;;;;;6.28;1.50;;;10.70;67.00;;;;;;5004421;28;20505;-81
2022/02/25 12:48:49;;;;;;;6.47;1.70;;;10.60;65.30;;;;;;5008044;28;20045;-80
2022/02/25 12:51:16;;;;;;;8.15;1.60;;;10.60;65.80;;;;;;5007579;28;20034;-80
2022/02/25 12:53:55;;;;;;;7.18;1.67;;;10.40;66.00;;;;;;5010163;28;20068;-79
2022/02/25 12:56:26;;;;;;;5.15;1.38;;;10.30;66.60;;;;;;5010499;28;20788;-78
2022/02/25 12:58:57;;;;;;;7.13;1.70;;;10.20;66.60;;;;;;5005970;28;20061;-78
2022/02/25 13:01:25;;;;;;;6.20;1.52;;;10.20;68.00;;;;;;5005345;28;20041;-80
2022/02/25 13:04:05;;;;;;;5.78;1.55;;;10.30;68.20;;;;;;5010258;28;20117;-80
2022/02/25 13:06:36;;;;;;;4.47;1.20;;;10.50;66.80;;;;;;5009864;28;20022;-80